Terminal Aerodrome Forecast
Issued by NWS

Home | Current Version | Previous Version | Graphics & Text | Print | Product List | Glossary On
Versions: 1 2 3 4 5 6 7 8 9 10 11 12 13 14 15 16
000
FTUS43 KGRB 151500 AAA
TAFCWA
TAF AMD
KCWA 151514Z 1515/1612 30005KT P6SM SCT040 BKN090
     FM151900 30009KT P6SM BKN045
     FM152300 30006KT P6SM SCT060
     FM160200 VRB03KT P6SM SKC=

USA.gov is the U.S. government's official web portal to all federal, state and local government web resources and services.